Time;durP1;ratioP1;P1;durP2;ratioP2;P2;SDS_P1;SDS_P2;PMS_P1;PMS_P2;Temp;Humidity;BMP_temperature;BMP_pressure;BME280_temperature;BME280_humidity;BME280_pressure;Samples;Min_cycle;Max_cycle;Signal;HPM_P1;HPM_P2
2021/09/22 00:00:07;;;;;;;5.75;2.50;;;13.00;99.90;;;;;;4921324;29;20502;-93
2021/09/22 00:02:32;;;;;;;7.90;3.30;;;13.00;99.90;;;;;;4922088;29;20521;-92
2021/09/22 00:04:58;;;;;;;6.22;3.00;;;12.90;99.90;;;;;;4921766;29;20035;-92
2021/09/22 00:07:24;;;;;;;5.13;3.10;;;12.90;99.90;;;;;;4938978;29;20171;-91
2021/09/22 00:09:50;;;;;;;9.63;3.13;;;12.90;99.90;;;;;;4921448;29;20028;-92
2021/09/22 00:12:16;;;;;;;7.95;3.33;;;12.90;99.90;;;;;;4921553;29;20409;-93
2021/09/22 00:14:42;;;;;;;8.25;4.00;;;12.90;99.90;;;;;;4938859;29;20036;-92
2021/09/22 00:17:07;;;;;;;6.78;3.67;;;12.90;99.90;;;;;;4921459;29;20035;-89
2021/09/22 00:19:33;;;;;;;5.80;3.22;;;12.70;99.90;;;;;;4921597;29;20036;-92
2021/09/22 00:21:59;;;;;;;9.55;3.60;;;12.70;99.90;;;;;;4921409;29;20042;-91
2021/09/22 00:24:25;;;;;;;7.80;3.28;;;12.70;99.90;;;;;;4921532;29;20035;-92
2021/09/22 00:26:51;;;;;;;9.75;3.67;;;12.60;99.90;;;;;;4921712;29;20066;-92
2021/09/22 00:29:17;;;;;;;11.13;4.88;;;12.60;99.90;;;;;;4921361;29;20027;-92
2021/09/22 00:31:42;;;;;;;9.50;4.28;;;12.60;99.90;;;;;;4920838;29;20059;-92
2021/09/22 00:34:08;;;;;;;10.45;4.25;;;12.60;99.90;;;;;;4921270;29;20055;-93
2021/09/22 00:36:34;;;;;;;8.88;4.50;;;12.60;99.90;;;;;;4921324;29;20350;-93
2021/09/22 00:39:00;;;;;;;9.20;4.82;;;12.60;99.90;;;;;;4938920;29;20028;-91
2021/09/22 00:41:26;;;;;;;7.95;4.35;;;12.60;99.90;;;;;;4921498;29;20036;-91
2021/09/22 00:43:52;;;;;;;10.60;4.88;;;12.50;99.90;;;;;;4921008;29;20098;-91
2021/09/22 00:46:18;;;;;;;10.20;4.07;;;12.50;99.90;;;;;;4920480;29;20028;-92
2021/09/22 00:48:44;;;;;;;8.25;4.20;;;12.40;99.90;;;;;;4920752;29;20032;-91
2021/09/22 00:51:11;;;;;;;12.82;4.60;;;12.40;99.90;;;;;;4920153;29;20028;-92
2021/09/22 00:53:38;;;;;;;14.02;4.57;;;12.40;99.90;;;;;;4920658;29;20028;-92
2021/09/22 00:56:05;;;;;;;10.10;4.10;;;12.40;99.90;;;;;;4920847;29;20039;-91
2021/09/22 00:58:31;;;;;;;13.55;4.68;;;12.30;99.90;;;;;;4920559;29;20034;-90
2021/09/22 01:00:57;;;;;;;11.10;5.15;;;12.30;99.90;;;;;;4937005;29;20023;-91
2021/09/22 01:03:24;;;;;;;7.53;4.32;;;12.20;99.90;;;;;;4920613;29;20119;-91
2021/09/22 01:05:51;;;;;;;6.07;3.67;;;12.20;99.90;;;;;;4920540;29;20031;-91
2021/09/22 01:08:18;;;;;;;9.50;3.90;;;12.10;99.90;;;;;;4920370;29;20461;-92
2021/09/22 01:10:45;;;;;;;9.10;3.75;;;12.10;99.90;;;;;;4937046;29;20119;-92
2021/09/22 01:13:11;;;;;;;7.65;3.55;;;12.10;99.90;;;;;;4920688;29;20066;-92
2021/09/22 01:15:39;;;;;;;7.75;3.50;;;12.00;99.90;;;;;;4920540;29;20023;-92
2021/09/22 01:18:10;;;;;;;8.55;3.67;;;12.00;99.90;;;;;;4920622;29;20489;-92
2021/09/22 01:20:36;;;;;;;10.40;3.40;;;12.00;99.90;;;;;;4920829;29;20055;-92
2021/09/22 01:23:04;;;;;;;7.03;3.75;;;11.90;99.90;;;;;;4920718;29;20051;-91
2021/09/22 01:25:30;;;;;;;6.70;4.20;;;11.90;99.90;;;;;;4920328;29;20036;-90
2021/09/22 01:28:02;;;;;;;10.85;3.67;;;11.90;99.90;;;;;;4919930;29;20036;-92
2021/09/22 01:30:29;;;;;;;9.25;4.78;;;11.90;99.90;;;;;;4919950;29;20132;-91
2021/09/22 01:33:00;;;;;;;12.40;5.20;;;11.90;99.90;;;;;;4936749;29;20044;-92
2021/09/22 01:35:26;;;;;;;11.82;5.60;;;11.90;99.90;;;;;;4937596;29;20126;-91
2021/09/22 01:37:52;;;;;;;12.93;8.18;;;11.90;99.90;;;;;;4920693;29;20032;-91
2021/09/22 01:40:19;;;;;;;10.95;5.07;;;11.90;99.90;;;;;;4920316;29;20358;-90
2021/09/22 01:42:45;;;;;;;20.55;12.30;;;11.90;99.90;;;;;;4937388;29;20130;-90
2021/09/22 01:45:14;;;;;;;18.10;9.60;;;11.90;99.90;;;;;;4920536;29;20024;-92
2021/09/22 01:47:41;;;;;;;23.10;12.23;;;11.90;99.90;;;;;;4920684;29;20028;-91
2021/09/22 01:50:13;;;;;;;22.45;10.63;;;12.00;99.90;;;;;;4919344;29;20030;-93
2021/09/22 01:52:40;;;;;;;27.58;13.48;;;12.10;99.90;;;;;;4919367;29;20034;-91
2021/09/22 01:55:06;;;;;;;24.67;12.35;;;12.10;99.90;;;;;;4919724;29;20023;-92
2021/09/22 01:57:32;;;;;;;27.55;16.40;;;12.20;99.90;;;;;;4936440;29;20106;-93
2021/09/22 01:59:58;;;;;;;29.30;16.02;;;12.20;99.90;;;;;;4919403;29;20067;-92
2021/09/22 02:02:24;;;;;;;23.65;13.98;;;12.30;99.90;;;;;;4918964;29;20134;-92
2021/09/22 02:04:50;;;;;;;26.88;15.65;;;12.30;99.90;;;;;;4919509;29;20028;-93
2021/09/22 02:07:15;;;;;;;25.92;13.77;;;12.40;99.90;;;;;;4919509;29;20035;-92
2021/09/22 02:09:41;;;;;;;23.25;12.90;;;12.40;99.90;;;;;;4919622;29;20024;-92
2021/09/22 02:12:07;;;;;;;22.92;12.15;;;12.50;99.90;;;;;;4937336;29;20031;-91
2021/09/22 02:14:33;;;;;;;19.08;11.50;;;12.50;99.90;;;;;;4920279;29;20063;-91
2021/09/22 02:16:59;;;;;;;20.63;11.20;;;12.50;99.90;;;;;;4936620;29;20035;-92
2021/09/22 02:19:25;;;;;;;21.58;12.27;;;12.60;99.90;;;;;;4919388;29;20165;-92
2021/09/22 02:21:51;;;;;;;20.98;10.77;;;12.60;99.90;;;;;;4919756;29;20039;-92
2021/09/22 02:24:17;;;;;;;21.27;12.23;;;12.60;99.90;;;;;;4919564;29;20503;-93
2021/09/22 02:26:42;;;;;;;20.67;10.95;;;12.60;99.90;;;;;;4920056;29;20031;-93
2021/09/22 02:29:08;;;;;;;19.73;10.90;;;12.60;99.90;;;;;;4919590;29;20123;-92
2021/09/22 02:31:34;;;;;;;18.45;11.25;;;12.60;99.90;;;;;;4920125;29;20537;-92
2021/09/22 02:34:00;;;;;;;19.10;9.48;;;12.60;99.90;;;;;;4917784;29;20116;-92
2021/09/22 02:36:27;;;;;;;15.25;8.75;;;12.60;99.90;;;;;;4917344;29;20028;-92
2021/09/22 02:38:53;;;;;;;18.42;9.15;;;12.60;99.90;;;;;;4917997;29;20027;-93
2021/09/22 02:41:19;;;;;;;12.32;8.15;;;12.60;99.90;;;;;;4926259;29;20028;-93
2021/09/22 02:43:44;;;;;;;13.40;8.18;;;12.70;99.90;;;;;;4925969;29;20159;-92
2021/09/22 02:46:10;;;;;;;13.43;8.15;;;12.70;99.90;;;;;;4923217;29;20063;-92
2021/09/22 02:48:36;;;;;;;14.77;8.65;;;12.70;99.90;;;;;;4925502;29;20032;-91
2021/09/22 02:51:02;;;;;;;13.32;8.23;;;12.70;99.90;;;;;;4925824;29;20105;-92
2021/09/22 02:53:29;;;;;;;27.00;11.45;;;12.70;99.90;;;;;;4917070;29;20083;-93
2021/09/22 02:55:55;;;;;;;19.98;9.80;;;12.70;99.90;;;;;;4916060;29;20035;-93
2021/09/22 02:58:20;;;;;;;23.40;10.45;;;12.70;99.90;;;;;;4916177;29;20115;-92
2021/09/22 03:00:47;;;;;;;14.93;8.98;;;12.70;99.90;;;;;;4915871;29;20052;-93
2021/09/22 03:03:14;;;;;;;19.50;8.95;;;12.60;99.90;;;;;;4915973;29;20040;-93
2021/09/22 03:05:39;;;;;;;17.95;8.73;;;12.60;99.90;;;;;;4916278;29;20062;-92
2021/09/22 03:08:05;;;;;;;15.40;8.43;;;12.60;99.90;;;;;;4916128;29;20028;-92
2021/09/22 03:10:32;;;;;;;15.43;7.45;;;12.60;99.90;;;;;;4916064;29;20497;-92
2021/09/22 03:12:57;;;;;;;15.63;8.30;;;12.60;99.90;;;;;;4917286;29;20024;-93
2021/09/22 03:15:23;;;;;;;19.77;8.85;;;12.60;99.90;;;;;;4918601;29;20195;-92
2021/09/22 03:17:49;;;;;;;16.73;7.88;;;12.60;99.90;;;;;;4919203;29;20032;-92
2021/09/22 03:20:15;;;;;;;16.92;8.65;;;12.60;99.90;;;;;;4919153;29;20032;-93
2021/09/22 03:22:40;;;;;;;15.73;6.93;;;12.60;99.90;;;;;;4919223;29;20051;-90
2021/09/22 03:25:07;;;;;;;13.68;6.45;;;12.60;99.90;;;;;;4919190;29;20032;-90
2021/09/22 03:27:33;;;;;;;15.00;6.43;;;12.60;99.90;;;;;;4918673;29;20025;-92
2021/09/22 03:29:59;;;;;;;14.43;6.88;;;12.60;99.90;;;;;;4919127;29;20060;-92
2021/09/22 03:32:25;;;;;;;14.70;6.47;;;12.60;99.90;;;;;;4918745;29;20039;-91
2021/09/22 03:34:50;;;;;;;12.15;6.50;;;12.60;99.90;;;;;;4922410;29;20043;-92
2021/09/22 03:37:16;;;;;;;9.85;5.72;;;12.60;99.90;;;;;;4922313;29;20027;-91
2021/09/22 03:39:42;;;;;;;10.65;5.75;;;12.60;99.90;;;;;;4922119;29;20024;-91
2021/09/22 03:42:08;;;;;;;14.70;6.63;;;12.60;99.90;;;;;;4939009;29;20482;-93
2021/09/22 03:44:33;;;;;;;14.80;6.45;;;12.60;99.90;;;;;;4922904;29;20474;-92
2021/09/22 03:46:59;;;;;;;16.00;6.03;;;12.60;99.90;;;;;;4923048;29;20505;-94
2021/09/22 03:49:25;;;;;;;12.85;5.93;;;12.60;99.90;;;;;;4921700;29;20048;-90
2021/09/22 03:51:50;;;;;;;14.38;6.78;;;12.60;99.90;;;;;;4938970;29;20101;-91
2021/09/22 03:54:16;;;;;;;13.13;6.07;;;12.50;99.90;;;;;;4922102;29;20067;-93
2021/09/22 03:56:42;;;;;;;12.52;6.20;;;12.50;99.90;;;;;;4921701;29;20032;-91
2021/09/22 03:59:08;;;;;;;20.10;6.53;;;12.50;99.90;;;;;;4921411;29;20071;-92
2021/09/22 04:01:34;;;;;;;17.23;6.95;;;12.50;99.90;;;;;;4921357;29;20038;-91
2021/09/22 04:03:59;;;;;;;15.27;6.28;;;12.60;99.90;;;;;;4921509;29;20036;-91
2021/09/22 04:06:25;;;;;;;15.88;7.63;;;12.50;99.90;;;;;;4922023;29;20027;-92
2021/09/22 04:08:51;;;;;;;14.88;6.53;;;12.50;99.90;;;;;;4940683;29;20087;-93
2021/09/22 04:11:17;;;;;;;12.52;6.13;;;12.50;99.90;;;;;;4933914;29;20496;-92
2021/09/22 04:13:42;;;;;;;12.15;5.72;;;12.60;99.90;;;;;;4921720;29;20034;-93
2021/09/22 04:16:09;;;;;;;21.85;7.97;;;12.60;99.90;;;;;;4937791;29;20039;-92
2021/09/22 04:18:36;;;;;;;18.00;9.07;;;12.50;99.90;;;;;;4920869;29;20027;-92
2021/09/22 04:21:01;;;;;;;17.73;7.78;;;12.60;99.90;;;;;;4921284;29;20028;-94
2021/09/22 04:23:27;;;;;;;17.08;7.75;;;12.50;99.90;;;;;;4921467;29;20039;-92
2021/09/22 04:25:53;;;;;;;15.77;7.68;;;12.60;99.90;;;;;;4920932;29;20034;-94
2021/09/22 04:28:19;;;;;;;17.13;8.95;;;12.50;99.90;;;;;;4921472;29;20038;-95
2021/09/22 04:30:45;;;;;;;18.13;8.23;;;12.60;99.90;;;;;;4921515;29;20086;-92
2021/09/22 04:33:10;;;;;;;18.05;8.93;;;12.50;99.90;;;;;;4921138;29;20039;-92
2021/09/22 04:35:36;;;;;;;16.75;9.45;;;12.60;99.90;;;;;;4921323;29;20032;-94
2021/09/22 04:38:02;;;;;;;22.48;10.98;;;12.50;99.90;;;;;;4921251;29;20024;-94
2021/09/22 04:40:28;;;;;;;16.40;10.07;;;12.50;99.90;;;;;;4920712;29;20031;-92
2021/09/22 04:42:55;;;;;;;20.77;10.38;;;12.50;99.90;;;;;;4920870;29;20040;-94
2021/09/22 04:45:22;;;;;;;26.70;12.25;;;12.50;99.90;;;;;;4920773;29;20470;-92
2021/09/22 04:47:49;;;;;;;27.48;16.23;;;12.50;99.90;;;;;;4920474;29;20090;-94
2021/09/22 04:50:15;;;;;;;27.80;16.50;;;12.50;99.90;;;;;;4920942;29;20036;-92
2021/09/22 04:52:41;;;;;;;25.45;16.40;;;12.40;99.90;;;;;;4937603;29;20047;-93
2021/09/22 04:55:07;;;;;;;31.40;14.18;;;12.40;99.90;;;;;;4920906;29;20024;-91
2021/09/22 04:57:33;;;;;;;23.02;13.40;;;12.40;99.90;;;;;;4920556;29;20047;-93
2021/09/22 04:59:59;;;;;;;24.05;13.18;;;12.40;99.90;;;;;;4920459;29;20114;-93
2021/09/22 05:02:24;;;;;;;29.33;13.13;;;12.40;99.90;;;;;;4921002;29;20565;-92
2021/09/22 05:04:50;;;;;;;26.42;13.55;;;12.40;99.90;;;;;;4920668;29;20036;-92
2021/09/22 05:07:16;;;;;;;22.83;12.77;;;12.40;99.90;;;;;;4920373;29;20032;-92
2021/09/22 05:09:41;;;;;;;20.77;12.07;;;12.40;99.90;;;;;;4920613;29;20043;-94
2021/09/22 05:12:07;;;;;;;23.70;12.20;;;12.40;99.90;;;;;;4920492;29;20561;-93
2021/09/22 05:14:33;;;;;;;20.10;12.75;;;12.40;99.90;;;;;;4937564;29;20119;-91
2021/09/22 05:16:59;;;;;;;22.90;12.60;;;12.40;99.90;;;;;;4920430;29;20037;-91
2021/09/22 05:19:26;;;;;;;20.92;11.55;;;12.40;99.90;;;;;;4921838;29;20028;-91
2021/09/22 05:21:52;;;;;;;23.48;11.57;;;12.30;99.90;;;;;;4922097;29;20036;-94
2021/09/22 05:24:18;;;;;;;22.13;10.98;;;12.40;99.90;;;;;;4920073;29;20039;-91
2021/09/22 05:26:44;;;;;;;19.75;11.48;;;12.40;99.90;;;;;;4920139;29;20561;-92
2021/09/22 05:29:10;;;;;;;21.83;11.18;;;12.30;99.90;;;;;;4920028;29;20027;-90
2021/09/22 05:31:36;;;;;;;21.77;11.68;;;12.30;99.90;;;;;;4920456;29;20020;-93
2021/09/22 05:34:01;;;;;;;20.20;11.75;;;12.40;99.90;;;;;;4917036;29;20092;-92
2021/09/22 05:36:27;;;;;;;20.15;11.73;;;12.30;99.90;;;;;;4916274;29;20091;-92
2021/09/22 05:38:53;;;;;;;20.20;11.40;;;12.40;99.90;;;;;;4917344;29;20082;-93
2021/09/22 05:41:18;;;;;;;20.17;10.57;;;12.40;99.90;;;;;;4917220;29;20534;-94
2021/09/22 05:43:44;;;;;;;25.65;11.70;;;12.40;99.90;;;;;;4916730;29;20171;-94
2021/09/22 05:46:10;;;;;;;18.85;10.95;;;12.40;99.90;;;;;;4916772;29;20034;-94
2021/09/22 05:48:35;;;;;;;20.52;10.82;;;12.40;99.90;;;;;;4916480;29;20454;-91
2021/09/22 05:51:01;;;;;;;19.77;10.18;;;12.40;99.90;;;;;;4916817;29;20035;-91
2021/09/22 05:53:27;;;;;;;19.05;10.25;;;12.30;99.90;;;;;;4916361;29;20042;-91
2021/09/22 05:55:53;;;;;;;23.83;12.35;;;12.40;99.90;;;;;;4916287;29;20076;-93
2021/09/22 05:58:20;;;;;;;19.95;11.50;;;12.40;99.90;;;;;;4916657;29;20027;-92
2021/09/22 06:00:47;;;;;;;17.77;9.30;;;12.30;99.90;;;;;;4918094;29;20036;-93
2021/09/22 06:03:13;;;;;;;20.15;11.55;;;12.40;99.90;;;;;;4916662;29;20040;-93
2021/09/22 06:05:39;;;;;;;23.73;13.65;;;12.30;99.90;;;;;;4917379;29;20744;-93
2021/09/22 06:08:06;;;;;;;20.75;10.77;;;12.40;99.90;;;;;;4915535;29;20059;-93
2021/09/22 06:10:33;;;;;;;18.70;10.50;;;12.40;99.90;;;;;;4915779;29;20024;-94
2021/09/22 06:12:59;;;;;;;25.25;12.80;;;12.40;99.90;;;;;;4915816;29;20025;-93
2021/09/22 06:15:24;;;;;;;18.80;10.98;;;12.40;99.90;;;;;;4916096;29;20075;-90
2021/09/22 06:17:51;;;;;;;18.75;10.43;;;12.40;99.90;;;;;;4915825;29;20024;-90
2021/09/22 06:20:17;;;;;;;21.75;10.35;;;12.50;99.90;;;;;;4916414;29;20043;-92
2021/09/22 06:22:43;;;;;;;23.52;11.07;;;12.40;99.90;;;;;;4920913;29;20036;-91
2021/09/22 06:25:10;;;;;;;17.85;10.43;;;12.50;99.90;;;;;;4927798;29;20105;-92
2021/09/22 06:27:35;;;;;;;17.85;10.65;;;12.50;99.90;;;;;;4927182;29;20036;-92
2021/09/22 06:30:01;;;;;;;18.50;11.60;;;12.60;99.90;;;;;;4923680;29;20387;-94
2021/09/22 06:32:27;;;;;;;19.88;10.88;;;12.60;99.90;;;;;;4923666;29;20059;-94
2021/09/22 06:34:53;;;;;;;19.50;10.25;;;12.60;99.90;;;;;;4922671;29;20501;-93
2021/09/22 06:37:18;;;;;;;19.48;12.20;;;12.70;99.90;;;;;;4920369;29;20192;-93
2021/09/22 06:39:44;;;;;;;20.60;10.93;;;12.70;99.90;;;;;;4920383;29;20537;-93
2021/09/22 06:42:10;;;;;;;17.48;11.02;;;12.80;99.90;;;;;;4945179;28;20473;-92
2021/09/22 06:44:37;;;;;;;22.23;13.55;;;12.80;99.90;;;;;;4919264;29;20075;-92
2021/09/22 06:47:03;;;;;;;30.63;14.82;;;12.80;99.90;;;;;;4932223;29;20051;-93
2021/09/22 06:49:30;;;;;;;24.98;13.35;;;12.90;99.90;;;;;;4926465;29;20039;-93
2021/09/22 06:51:56;;;;;;;23.45;14.60;;;12.90;99.90;;;;;;4928633;29;20059;-93
2021/09/22 06:54:22;;;;;;;20.98;11.10;;;12.90;99.90;;;;;;4927060;29;20039;-92
2021/09/22 06:56:47;;;;;;;24.30;15.15;;;12.90;99.90;;;;;;4935288;29;20020;-94
2021/09/22 06:59:13;;;;;;;17.98;10.73;;;13.00;99.90;;;;;;4928812;29;20478;-94
2021/09/22 07:01:42;;;;;;;25.73;12.60;;;13.00;99.90;;;;;;4929283;29;20031;-92
2021/09/22 07:04:08;;;;;;;24.65;14.80;;;13.00;99.90;;;;;;4942457;29;20028;-94
2021/09/22 07:06:33;;;;;;;19.67;11.55;;;13.10;99.90;;;;;;4941863;29;20111;-93
2021/09/22 07:09:00;;;;;;;28.77;14.63;;;13.10;99.90;;;;;;4938628;29;20043;-94
2021/09/22 07:11:43;;;;;;;19.35;12.73;;;13.20;99.90;;;;;;4944223;29;20036;-94
2021/09/22 07:14:08;;;;;;;17.58;13.55;;;13.20;99.90;;;;;;4938445;29;20047;-92
2021/09/22 07:16:34;;;;;;;25.25;14.68;;;13.30;99.90;;;;;;4945943;29;20031;-93
2021/09/22 07:19:00;;;;;;;21.35;12.20;;;13.30;99.90;;;;;;4939999;29;20091;-94
2021/09/22 07:21:25;;;;;;;18.02;11.73;;;13.40;99.90;;;;;;4933643;29;20122;-95
2021/09/22 07:23:52;;;;;;;19.80;12.25;;;13.50;99.90;;;;;;4933353;29;20035;-96
2021/09/22 07:26:18;;;;;;;18.45;11.40;;;13.50;99.90;;;;;;4935140;29;20034;-95
2021/09/22 07:28:44;;;;;;;19.92;11.13;;;13.60;99.90;;;;;;4925439;29;20074;-96
2021/09/22 07:31:10;;;;;;;17.85;10.48;;;13.60;99.90;;;;;;4931970;29;20047;-93
2021/09/22 07:33:36;;;;;;;16.13;10.43;;;13.70;99.90;;;;;;4923591;29;20047;-94
2021/09/22 07:36:04;;;;;;;16.92;9.80;;;13.70;99.90;;;;;;4915129;29;20031;-94
2021/09/22 07:38:31;;;;;;;16.50;10.13;;;13.80;99.90;;;;;;4923349;29;20027;-95
2021/09/22 07:40:57;;;;;;;19.27;9.52;;;13.80;99.90;;;;;;4930949;29;20027;-93
2021/09/22 07:43:23;;;;;;;20.52;9.23;;;13.90;99.90;;;;;;4923036;29;20076;-93
2021/09/22 07:45:49;;;;;;;19.85;8.80;;;13.90;99.90;;;;;;4934011;29;20050;-93
2021/09/22 07:48:15;;;;;;;18.35;9.02;;;13.90;99.90;;;;;;4936451;29;20034;-93
2021/09/22 07:50:40;;;;;;;14.90;8.23;;;13.90;99.90;;;;;;4925336;29;20022;-94
2021/09/22 07:53:06;;;;;;;13.48;8.48;;;14.00;99.90;;;;;;4927464;29;20023;-94
2021/09/22 07:55:32;;;;;;;14.60;6.63;;;14.10;99.90;;;;;;4922352;28;20035;-94
2021/09/22 07:57:58;;;;;;;14.55;6.55;;;14.10;99.90;;;;;;4923592;29;20023;-92
2021/09/22 08:00:24;;;;;;;16.52;6.82;;;14.20;99.90;;;;;;4929586;29;20445;-92
2021/09/22 08:02:52;;;;;;;16.38;6.40;;;14.20;99.90;;;;;;4920425;29;20103;-93
2021/09/22 08:05:18;;;;;;;13.65;6.68;;;14.30;99.90;;;;;;4961688;29;20023;-94
2021/09/22 08:07:44;;;;;;;12.32;5.63;;;14.30;99.90;;;;;;4946050;29;20023;-94
2021/09/22 08:10:11;;;;;;;10.05;5.55;;;14.40;99.90;;;;;;4944128;28;20024;-93
2021/09/22 08:12:37;;;;;;;10.25;5.82;;;14.40;99.90;;;;;;4940682;29;20019;-93
2021/09/22 08:15:03;;;;;;;9.07;5.30;;;14.50;99.90;;;;;;4929526;29;20118;-93
2021/09/22 08:17:28;;;;;;;8.80;4.70;;;14.50;99.90;;;;;;4922482;29;20055;-92
2021/09/22 08:19:54;;;;;;;12.50;5.18;;;14.50;99.90;;;;;;4932991;29;20042;-93
2021/09/22 08:22:20;;;;;;;7.30;4.45;;;14.60;99.90;;;;;;4957586;28;20035;-91
2021/09/22 08:24:46;;;;;;;9.57;4.88;;;14.60;99.90;;;;;;4933572;29;20038;-91
2021/09/22 08:27:13;;;;;;;11.93;4.97;;;14.70;99.90;;;;;;4931326;29;20035;-91
2021/09/22 08:29:39;;;;;;;10.88;5.05;;;14.80;99.90;;;;;;4934837;29;20050;-90
2021/09/22 08:32:05;;;;;;;9.38;4.95;;;14.80;99.90;;;;;;4921970;29;20046;-90
2021/09/22 08:34:31;;;;;;;8.60;4.20;;;14.90;99.90;;;;;;4925946;29;20047;-93
2021/09/22 08:36:56;;;;;;;10.70;3.97;;;14.90;99.90;;;;;;4922645;29;20119;-93
2021/09/22 08:39:22;;;;;;;9.38;4.18;;;15.00;99.90;;;;;;4933087;29;20016;-92
2021/09/22 08:41:49;;;;;;;10.38;4.78;;;15.00;99.90;;;;;;4931864;29;20043;-92
2021/09/22 08:44:16;;;;;;;7.93;4.35;;;15.00;99.90;;;;;;4922519;29;20059;-91
2021/09/22 08:46:44;;;;;;;7.30;4.25;;;15.10;99.90;;;;;;4929830;29;20051;-93
2021/09/22 08:49:11;;;;;;;8.70;4.65;;;15.10;99.90;;;;;;4921687;29;20079;-91
2021/09/22 08:51:38;;;;;;;14.90;4.50;;;15.10;99.90;;;;;;4929959;29;20474;-91
2021/09/22 08:54:04;;;;;;;9.98;5.07;;;15.20;99.90;;;;;;4916142;28;20027;-92
2021/09/22 08:56:31;;;;;;;11.30;5.00;;;15.20;99.90;;;;;;4920399;29;20070;-90
2021/09/22 08:58:56;;;;;;;8.65;4.88;;;15.30;99.90;;;;;;4931317;29;20062;-91
2021/09/22 09:01:25;;;;;;;11.23;5.50;;;15.30;99.90;;;;;;4930091;29;20059;-91
2021/09/22 09:03:51;;;;;;;11.90;4.32;;;15.40;99.90;;;;;;4932197;29;20036;-90
2021/09/22 09:06:34;;;;;;;17.70;5.43;;;15.40;99.90;;;;;;4929204;29;20058;-92
2021/09/22 09:09:01;;;;;;;14.77;4.53;;;15.50;99.90;;;;;;4929840;29;20027;-88
2021/09/22 09:11:36;;;;;;;7.47;4.00;;;15.60;99.90;;;;;;4929656;29;20031;-89
2021/09/22 09:14:04;;;;;;;7.03;3.45;;;15.80;99.90;;;;;;4920978;29;20027;-89
2021/09/22 09:16:36;;;;;;;5.10;3.60;;;15.90;99.90;;;;;;4931913;29;20027;-91
2021/09/22 09:19:08;;;;;;;10.35;3.80;;;16.00;99.90;;;;;;4920679;29;20047;-90
2021/09/22 09:22:02;;;;;;;6.72;2.88;;;16.10;99.90;;;;;;4925620;29;20044;-90
2021/09/22 09:24:40;;;;;;;7.63;3.45;;;16.20;99.90;;;;;;4922016;29;20027;-92
2021/09/22 09:27:35;;;;;;;7.78;2.58;;;16.20;99.90;;;;;;4946615;29;20031;-92
2021/09/22 09:30:17;;;;;;;4.95;2.60;;;16.20;99.90;;;;;;4909566;29;20047;-93
2021/09/22 09:32:43;;;;;;;5.93;2.53;;;16.20;99.90;;;;;;4936341;29;20028;-93
2021/09/22 09:35:12;;;;;;;7.95;2.65;;;16.30;99.90;;;;;;4923907;29;20035;-92
2021/09/22 09:37:45;;;;;;;5.35;2.70;;;16.30;99.90;;;;;;4930767;29;20118;-91
2021/09/22 09:40:30;;;;;;;5.72;3.28;;;16.30;99.90;;;;;;4927354;29;20039;-91
2021/09/22 09:43:00;;;;;;;6.13;3.15;;;16.40;99.90;;;;;;4926378;29;20131;-94
2021/09/22 09:45:41;;;;;;;8.80;3.00;;;16.40;99.90;;;;;;4936040;29;20106;-92
2021/09/22 09:48:14;;;;;;;6.38;2.70;;;16.50;99.90;;;;;;4919617;29;20275;-94
2021/09/22 09:51:00;;;;;;;5.53;2.78;;;16.50;99.90;;;;;;4920770;29;20024;-92
2021/09/22 09:53:28;;;;;;;7.50;3.28;;;16.60;99.90;;;;;;4919598;29;20052;-94
2021/09/22 09:55:58;;;;;;;8.05;3.58;;;16.60;99.90;;;;;;4938194;29;20024;-93
2021/09/22 09:58:39;;;;;;;9.30;3.88;;;16.50;99.90;;;;;;4923317;29;20055;-92
2021/09/22 10:01:05;;;;;;;10.73;4.03;;;16.50;99.90;;;;;;4940449;29;20035;-91
2021/09/22 10:03:31;;;;;;;7.78;3.95;;;16.60;99.90;;;;;;4933855;29;20035;-93
2021/09/22 10:05:58;;;;;;;6.22;3.55;;;16.70;99.90;;;;;;4933239;29;20024;-91
2021/09/22 10:08:26;;;;;;;7.65;4.50;;;16.70;99.90;;;;;;4936280;29;20027;-92
2021/09/22 10:10:55;;;;;;;5.82;4.00;;;16.80;99.90;;;;;;4950258;28;20031;-92
2021/09/22 10:13:21;;;;;;;7.20;4.40;;;16.80;99.90;;;;;;4939784;29;20103;-94
2021/09/22 10:15:49;;;;;;;8.90;4.97;;;16.80;99.90;;;;;;4975481;28;20027;-91
2021/09/22 10:18:18;;;;;;;8.52;4.10;;;16.90;99.90;;;;;;4957310;29;20027;-92
2021/09/22 10:20:45;;;;;;;7.70;3.95;;;16.90;99.90;;;;;;4941746;29;20107;-91
2021/09/22 10:23:13;;;;;;;7.07;4.05;;;16.90;99.90;;;;;;4943944;29;20024;-90
2021/09/22 10:25:40;;;;;;;8.68;4.28;;;16.90;99.90;;;;;;4946274;29;20026;-92
2021/09/22 10:28:08;;;;;;;10.93;5.57;;;17.00;99.90;;;;;;4946602;29;20040;-92
2021/09/22 10:30:38;;;;;;;7.80;5.40;;;16.90;99.90;;;;;;4961149;29;20042;-91
2021/09/22 10:33:04;;;;;;;11.63;5.65;;;16.90;99.90;;;;;;4961460;29;20050;-91
2021/09/22 10:35:36;;;;;;;11.98;7.60;;;16.90;99.90;;;;;;4946460;29;20107;-91
2021/09/22 10:38:21;;;;;;;8.88;7.32;;;16.90;99.90;;;;;;4945138;29;20023;-93
2021/09/22 10:40:54;;;;;;;9.85;7.20;;;16.80;99.90;;;;;;4942534;29;20038;-91
2021/09/22 10:43:27;;;;;;;11.50;7.82;;;16.80;99.90;;;;;;4928774;29;20453;-92
2021/09/22 10:46:15;;;;;;;8.98;7.03;;;16.70;99.90;;;;;;4944236;29;20053;-90
2021/09/22 10:48:51;;;;;;;13.20;7.07;;;16.60;99.90;;;;;;4941796;28;20405;-92
2021/09/22 10:51:49;;;;;;;10.18;5.95;;;16.60;99.90;;;;;;4933024;29;20247;-92
2021/09/22 10:54:19;;;;;;;9.68;6.53;;;16.70;99.90;;;;;;4893950;29;20085;-91
2021/09/22 10:56:51;;;;;;;7.60;5.07;;;16.70;99.90;;;;;;4931684;29;20634;-93
2021/09/22 10:59:24;;;;;;;8.60;5.45;;;16.80;99.90;;;;;;4933938;29;20082;-92
2021/09/22 11:01:50;;;;;;;5.88;3.33;;;17.00;99.90;;;;;;4953715;29;20062;-94
2021/09/22 11:04:16;;;;;;;5.28;3.38;;;17.10;99.90;;;;;;4942843;29;20489;-92
2021/09/22 11:09:17;;;;;;;8.38;3.75;;;17.30;99.90;;;;;;4945839;29;20106;-92
2021/09/22 11:12:03;;;;;;;5.43;3.72;;;17.30;99.90;;;;;;4923392;29;20032;-91
2021/09/22 11:14:31;;;;;;;4.20;3.15;;;17.30;99.90;;;;;;4948045;28;20035;-92
2021/09/22 11:16:59;;;;;;;6.47;3.10;;;17.30;99.90;;;;;;4946502;28;20027;-89
2021/09/22 11:19:25;;;;;;;4.80;3.10;;;17.30;99.90;;;;;;4927384;29;20032;-92
2021/09/22 11:21:51;;;;;;;5.20;2.65;;;17.30;99.90;;;;;;4931011;29;20461;-92
2021/09/22 11:24:21;;;;;;;4.50;2.30;;;17.40;99.90;;;;;;4934138;29;20024;-92
2021/09/22 11:27:11;;;;;;;4.65;1.73;;;17.40;99.90;;;;;;4929227;29;20159;-91
2021/09/22 11:29:44;;;;;;;4.37;1.83;;;17.40;99.90;;;;;;4933658;29;20016;-90
2021/09/22 11:32:48;;;;;;;4.05;1.60;;;17.40;99.90;;;;;;4951377;29;20035;-92
2021/09/22 11:35:18;;;;;;;3.42;1.90;;;17.40;99.90;;;;;;4836787;29;20052;-93
2021/09/22 11:37:44;;;;;;;3.72;1.45;;;17.50;99.90;;;;;;4852895;29;20034;-92
2021/09/22 11:40:20;;;;;;;3.75;1.63;;;17.70;99.90;;;;;;4827693;29;20036;-91
2021/09/22 11:43:03;;;;;;;3.42;1.67;;;17.70;99.90;;;;;;4832961;29;20540;-92
2021/09/22 11:45:34;;;;;;;5.15;1.90;;;17.80;99.90;;;;;;4835938;29;20018;-91
2021/09/22 11:48:00;;;;;;;7.82;2.55;;;17.80;99.90;;;;;;4827787;29;20484;-91
2021/09/22 11:50:34;;;;;;;2.33;1.55;;;17.90;99.90;;;;;;4827762;29;20488;-89
2021/09/22 11:53:00;;;;;;;3.45;1.60;;;17.90;99.90;;;;;;4818884;29;20061;-90
2021/09/22 11:55:26;;;;;;;2.60;1.42;;;18.00;99.90;;;;;;4842886;29;20057;-89
2021/09/22 11:57:52;;;;;;;2.35;1.45;;;18.40;99.90;;;;;;4842552;29;20034;-89
2021/09/22 12:00:21;;;;;;;1.88;1.50;;;18.90;99.90;;;;;;4842509;29;20038;-90
2021/09/22 12:02:47;;;;;;;3.17;1.55;;;19.60;99.90;;;;;;4830227;29;20049;-90
2021/09/22 12:05:15;;;;;;;1.55;1.45;;;20.20;97.80;;;;;;4851833;29;20040;-91
2021/09/22 12:07:42;;;;;;;1.98;1.40;;;20.80;94.70;;;;;;4929126;29;20140;-92
2021/09/22 12:10:08;;;;;;;2.00;1.38;;;21.20;93.30;;;;;;4911942;29;20207;-92
2021/09/22 12:12:34;;;;;;;2.15;1.95;;;21.60;91.60;;;;;;4943242;29;20115;-92
2021/09/22 12:15:00;;;;;;;4.65;2.50;;;21.90;88.40;;;;;;4927477;29;20043;-92
2021/09/22 12:17:35;;;;;;;3.80;3.38;;;22.20;84.10;;;;;;4927455;29;20031;-91
2021/09/22 12:20:02;;;;;;;5.28;3.20;;;22.30;81.60;;;;;;4920213;29;20028;-90
2021/09/22 12:22:31;;;;;;;3.50;2.95;;;22.30;81.20;;;;;;4935530;29;20062;-91
2021/09/22 12:24:57;;;;;;;3.17;2.80;;;22.40;80.00;;;;;;4920811;29;20087;-91
2021/09/22 12:27:25;;;;;;;3.88;2.78;;;22.50;78.90;;;;;;4919930;29;20102;-93
2021/09/22 12:29:59;;;;;;;2.67;2.47;;;22.70;78.50;;;;;;4921499;29;20028;-91
2021/09/22 12:32:29;;;;;;;3.28;2.63;;;23.00;78.00;;;;;;4920608;29;20032;-94
2021/09/22 12:34:56;;;;;;;;;;;23.20;76.80;;;;;;4925619;29;20055;-93
2021/09/22 12:37:29;;;;;;;5.10;2.50;;;23.30;75.10;;;;;;4928225;29;19978;-92
2021/09/22 12:40:05;;;;;;;4.00;2.47;;;23.40;74.80;;;;;;4924335;29;20032;-90
2021/09/22 12:42:40;;;;;;;6.80;2.63;;;23.60;74.10;;;;;;4921891;29;20040;-92